createdAt,value
2023-07-11T00:00:47.164Z,21.70
2023-07-11T00:01:47.120Z,21.76
2023-07-11T00:02:47.255Z,21.79
2023-07-11T00:03:47.150Z,21.80
2023-07-11T00:04:47.112Z,21.82
2023-07-11T00:05:47.101Z,21.80
2023-07-11T00:06:47.086Z,21.79
2023-07-11T00:07:47.114Z,21.79
2023-07-11T00:08:47.073Z,21.76
2023-07-11T00:09:47.034Z,21.72
2023-07-11T00:10:47.043Z,21.70
2023-07-11T00:11:47.016Z,21.70
2023-07-11T00:12:47.025Z,21.72
2023-07-11T00:13:47.037Z,21.70
2023-07-11T00:14:46.989Z,21.67
2023-07-11T00:15:46.982Z,21.64
2023-07-11T00:16:47.007Z,21.61
2023-07-11T00:17:47.055Z,21.60
2023-07-11T00:18:46.971Z,21.57
2023-07-11T00:19:46.957Z,21.54
2023-07-11T00:20:46.936Z,21.50
2023-07-11T00:21:46.929Z,21.48
2023-07-11T00:22:46.952Z,21.46
2023-07-11T00:23:46.914Z,21.45
2023-07-11T00:24:46.870Z,21.42
2023-07-11T00:25:46.874Z,21.36
2023-07-11T00:26:46.876Z,21.37
2023-07-11T00:27:46.849Z,21.37
2023-07-11T00:28:46.894Z,21.36
2023-07-11T00:29:46.913Z,21.33
2023-07-11T00:30:46.845Z,21.32
2023-07-11T00:31:46.838Z,21.30
2023-07-11T00:32:46.932Z,21.30
2023-07-11T00:33:46.810Z,21.32
2023-07-11T00:34:46.811Z,21.32
2023-07-11T00:35:46.774Z,21.33
2023-07-11T00:36:46.757Z,21.37
2023-07-11T00:37:46.747Z,21.39
2023-07-11T00:38:46.769Z,21.36
2023-07-11T00:39:46.733Z,21.30
2023-07-11T00:40:46.749Z,21.27
2023-07-11T00:41:46.723Z,21.24
2023-07-11T00:42:46.713Z,21.20
2023-07-11T00:43:46.729Z,21.18
2023-07-11T00:44:46.692Z,21.17
2023-07-11T00:45:46.678Z,21.14
2023-07-11T00:46:46.832Z,21.11
2023-07-11T00:47:46.688Z,21.09
2023-07-11T00:48:46.645Z,21.06
2023-07-11T00:49:46.698Z,21.06
2023-07-11T00:50:46.616Z,21.06
2023-07-11T00:51:46.598Z,21.03
2023-07-11T00:52:46.600Z,21.00
2023-07-11T00:53:46.580Z,21.00
2023-07-11T00:54:46.579Z,20.99
2023-07-11T00:55:46.590Z,20.95
2023-07-11T00:56:46.581Z,20.90
2023-07-11T00:57:46.572Z,20.87
2023-07-11T00:58:46.596Z,20.82
2023-07-11T00:59:46.530Z,20.80
2023-07-11T01:00:46.644Z,20.78
2023-07-11T01:01:46.537Z,20.78
2023-07-11T01:02:46.605Z,20.77
2023-07-11T01:03:46.600Z,20.77
2023-07-11T01:04:46.463Z,20.78
2023-07-11T01:05:46.460Z,20.77
2023-07-11T01:06:46.446Z,20.72
2023-07-11T01:07:46.473Z,20.74
2023-07-11T01:08:46.433Z,20.70
2023-07-11T01:09:46.445Z,20.69
2023-07-11T01:10:46.409Z,20.67
2023-07-11T01:11:46.412Z,20.69
2023-07-11T01:12:46.384Z,20.66
2023-07-11T01:13:46.411Z,20.63
2023-07-11T01:14:46.380Z,20.62
2023-07-11T01:15:46.354Z,20.62
2023-07-11T01:16:46.423Z,20.62
2023-07-11T01:17:46.346Z,20.65
2023-07-11T01:18:46.325Z,20.67
2023-07-11T01:19:46.322Z,20.69
2023-07-11T01:20:46.302Z,20.69
2023-07-11T01:21:46.298Z,20.70
2023-07-11T01:22:46.321Z,20.70
2023-07-11T01:23:48.472Z,20.75
2023-07-11T01:24:46.276Z,20.78
2023-07-11T01:25:46.275Z,20.77
2023-07-11T01:26:46.244Z,20.80
2023-07-11T01:27:46.242Z,20.78
2023-07-11T01:28:46.276Z,20.80
2023-07-11T01:29:46.307Z,20.80
2023-07-11T01:30:46.263Z,20.77
2023-07-11T01:31:46.190Z,20.74
2023-07-11T01:32:46.343Z,20.70
2023-07-11T01:33:46.163Z,20.65
2023-07-11T01:34:46.285Z,20.63
2023-07-11T01:35:46.188Z,20.65
2023-07-11T01:36:46.144Z,20.65
2023-07-11T01:37:46.119Z,20.66
2023-07-11T01:38:46.135Z,20.66
2023-07-11T01:39:46.106Z,20.63
2023-07-11T01:40:46.110Z,20.63
2023-07-11T01:41:46.085Z,20.62
2023-07-11T01:42:46.054Z,20.62
2023-07-11T01:43:46.075Z,20.62
2023-07-11T01:44:46.070Z,20.60
2023-07-11T01:45:46.039Z,20.60
2023-07-11T01:46:46.070Z,20.60
2023-07-11T01:47:46.064Z,20.60
2023-07-11T01:48:46.020Z,20.56
2023-07-11T01:49:46.005Z,20.55
2023-07-11T01:50:46.025Z,20.56
2023-07-11T01:51:45.955Z,20.52
2023-07-11T01:52:45.968Z,20.44
2023-07-11T01:53:45.937Z,20.37
2023-07-11T01:54:45.935Z,20.32
2023-07-11T01:55:45.963Z,20.28
2023-07-11T01:56:45.900Z,20.25
2023-07-11T01:57:45.909Z,20.29
2023-07-11T01:58:45.920Z,20.32
2023-07-11T01:59:45.889Z,20.32
2023-07-11T02:00:45.876Z,20.29
2023-07-11T02:01:45.975Z,20.26
2023-07-11T02:02:45.956Z,20.22
2023-07-11T02:03:46.109Z,20.18
2023-07-11T02:04:45.865Z,20.14
2023-07-11T02:05:45.847Z,20.09
2023-07-11T02:06:45.812Z,20.04
2023-07-11T02:07:45.823Z,19.99
2023-07-11T02:08:45.777Z,19.94
2023-07-11T02:09:45.795Z,19.86
2023-07-11T02:10:45.780Z,19.86
2023-07-11T02:11:45.764Z,19.82
2023-07-11T02:12:45.790Z,19.79
2023-07-11T02:13:45.798Z,19.74
2023-07-11T02:14:45.759Z,19.73
2023-07-11T02:15:45.723Z,19.73
2023-07-11T02:16:45.870Z,19.71
2023-07-11T02:17:45.811Z,19.73
2023-07-11T02:18:45.689Z,19.71
2023-07-11T02:19:45.678Z,19.81
2023-07-11T02:20:45.704Z,19.77
2023-07-11T02:21:45.647Z,19.76
2023-07-11T02:22:45.648Z,19.73
2023-07-11T02:23:45.686Z,19.69
2023-07-11T02:24:45.666Z,19.66
2023-07-11T02:25:45.626Z,19.66
2023-07-11T02:26:45.625Z,19.63
2023-07-11T02:27:45.614Z,19.58
2023-07-11T02:28:45.591Z,19.48
2023-07-11T02:29:45.580Z,19.44
2023-07-11T02:30:45.582Z,19.41
2023-07-11T02:31:45.634Z,19.37
2023-07-11T02:32:45.603Z,19.31
2023-07-11T02:33:45.538Z,19.27
2023-07-11T02:34:45.516Z,19.22
2023-07-11T02:35:45.524Z,19.24
2023-07-11T02:36:45.513Z,19.22
2023-07-11T02:37:45.506Z,19.22
2023-07-11T02:38:45.497Z,19.26
2023-07-11T02:39:45.513Z,19.22
2023-07-11T02:40:45.479Z,19.24
2023-07-11T02:41:45.482Z,19.24
2023-07-11T02:42:45.450Z,19.22
2023-07-11T02:43:45.428Z,19.22
2023-07-11T02:44:45.400Z,19.18
2023-07-11T02:45:45.483Z,19.18
2023-07-11T02:46:45.389Z,19.16
2023-07-11T02:47:45.439Z,19.16
2023-07-11T02:48:45.382Z,19.19
2023-07-11T02:49:45.385Z,19.15
2023-07-11T02:50:45.370Z,19.14
2023-07-11T02:51:45.413Z,19.12
2023-07-11T02:52:45.375Z,19.08
2023-07-11T02:53:45.346Z,19.07
2023-07-11T02:54:45.354Z,19.00
2023-07-11T02:55:45.324Z,19.08
2023-07-11T02:56:45.344Z,19.07
2023-07-11T02:57:45.295Z,19.00
2023-07-11T02:58:45.257Z,19.00
2023-07-11T02:59:45.268Z,18.98
2023-07-11T03:00:45.249Z,18.98
2023-07-11T03:01:45.313Z,18.99
2023-07-11T03:02:45.311Z,18.99
2023-07-11T03:03:45.287Z,18.95
2023-07-11T03:04:45.274Z,18.95
2023-07-11T03:05:45.231Z,18.93
2023-07-11T03:06:45.185Z,18.92
2023-07-11T03:07:45.212Z,18.89
2023-07-11T03:08:45.181Z,18.86
2023-07-11T03:09:45.167Z,18.81
2023-07-11T03:10:45.156Z,18.77
2023-07-11T03:11:45.129Z,18.75
2023-07-11T03:12:45.127Z,18.75
2023-07-11T03:13:45.169Z,18.75
2023-07-11T03:14:45.109Z,18.75
2023-07-11T03:15:45.178Z,18.75
2023-07-11T03:16:45.093Z,18.77
2023-07-11T03:17:45.142Z,18.74
2023-07-11T03:18:45.054Z,18.74
2023-07-11T03:19:45.081Z,18.73
2023-07-11T03:20:45.045Z,18.75
2023-07-11T03:21:45.058Z,18.77
2023-07-11T03:22:45.020Z,18.77
2023-07-11T03:23:45.040Z,18.77
2023-07-11T03:24:45.026Z,18.75
2023-07-11T03:25:44.994Z,18.77
2023-07-11T03:26:45.014Z,18.75
2023-07-11T03:27:44.980Z,18.74
2023-07-11T03:28:44.958Z,18.77
2023-07-11T03:29:44.950Z,18.77
2023-07-11T03:30:44.982Z,18.75
2023-07-11T03:31:44.939Z,18.77
2023-07-11T03:32:44.927Z,18.75
2023-07-11T03:33:44.913Z,18.77
2023-07-11T03:34:53.649Z,18.78
2023-07-11T03:35:44.907Z,18.78
2023-07-11T03:36:44.894Z,18.73
2023-07-11T03:37:44.884Z,18.71
2023-07-11T03:38:44.869Z,18.70
2023-07-11T03:39:44.864Z,18.70
2023-07-11T03:40:44.836Z,18.68
2023-07-11T03:41:44.860Z,18.70
2023-07-11T03:42:44.823Z,18.66
2023-07-11T03:43:44.810Z,18.66
2023-07-11T03:44:44.791Z,18.65
2023-07-11T03:45:45.773Z,18.65
2023-07-11T03:46:44.812Z,18.63
2023-07-11T03:47:44.860Z,18.56
2023-07-11T03:48:44.753Z,18.56
2023-07-11T03:49:44.759Z,18.55
2023-07-11T03:50:44.735Z,18.53
2023-07-11T03:51:46.034Z,18.50
2023-07-11T03:52:44.703Z,18.50
2023-07-11T03:53:44.708Z,18.50
2023-07-11T03:54:44.669Z,18.49
2023-07-11T03:55:44.702Z,18.50
2023-07-11T03:56:44.669Z,18.50
2023-07-11T03:57:44.670Z,18.55
2023-07-11T03:58:44.683Z,18.55
2023-07-11T03:59:44.640Z,18.56
2023-07-11T04:00:44.796Z,18.58
2023-07-11T04:01:44.638Z,18.58
2023-07-11T04:02:44.760Z,18.56
2023-07-11T04:03:44.800Z,18.58
2023-07-11T04:04:44.602Z,18.55
2023-07-11T04:05:44.590Z,18.53
2023-07-11T04:06:44.631Z,18.53
2023-07-11T04:07:44.536Z,18.55
2023-07-11T04:08:44.536Z,18.55
2023-07-11T04:09:44.533Z,18.55
2023-07-11T04:10:44.516Z,18.52
2023-07-11T04:11:44.497Z,18.55
2023-07-11T04:12:44.524Z,18.55
2023-07-11T04:13:44.514Z,18.53
2023-07-11T04:14:44.495Z,18.52
2023-07-11T04:15:44.465Z,18.50
2023-07-11T04:16:44.509Z,18.50
2023-07-11T04:17:44.577Z,18.49
2023-07-11T04:18:44.457Z,18.47
2023-07-11T04:19:44.411Z,18.47
2023-07-11T04:20:44.398Z,18.47
2023-07-11T04:21:44.404Z,18.45
2023-07-11T04:22:44.377Z,18.43
2023-07-11T04:23:44.398Z,18.45
2023-07-11T04:24:44.392Z,18.44
2023-07-11T04:25:44.422Z,18.45
2023-07-11T04:26:44.389Z,18.49
2023-07-11T04:27:44.363Z,18.52
2023-07-11T04:28:44.377Z,18.53
2023-07-11T04:29:44.316Z,18.55
2023-07-11T04:30:44.362Z,18.56
2023-07-11T04:31:44.312Z,18.59
2023-07-11T04:32:44.342Z,18.60
2023-07-11T04:33:44.300Z,18.62
2023-07-11T04:34:44.247Z,18.60
2023-07-11T04:35:44.254Z,18.60
2023-07-11T04:36:44.226Z,18.59
2023-07-11T04:37:44.243Z,18.62
2023-07-11T04:38:44.216Z,18.60
2023-07-11T04:39:44.244Z,18.63
2023-07-11T04:40:44.211Z,18.62
2023-07-11T04:41:44.203Z,18.63
2023-07-11T04:42:44.193Z,18.66
2023-07-11T04:43:44.179Z,18.70
2023-07-11T04:44:44.176Z,18.70
2023-07-11T04:45:44.189Z,18.71
2023-07-11T04:46:44.181Z,18.74
2023-07-11T04:47:47.212Z,18.75
2023-07-11T04:48:44.117Z,18.77
2023-07-11T04:49:44.185Z,18.81
2023-07-11T04:50:44.086Z,18.81
2023-07-11T04:51:44.142Z,18.86
2023-07-11T04:52:44.089Z,18.86
2023-07-11T04:53:44.077Z,18.88
2023-07-11T04:54:44.047Z,18.88
2023-07-11T04:55:44.051Z,18.89
2023-07-11T04:56:44.027Z,18.90
2023-07-11T04:57:44.026Z,18.92
2023-07-11T04:58:44.008Z,18.92
2023-07-11T04:59:43.998Z,18.92
2023-07-11T05:00:44.014Z,18.93
2023-07-11T05:01:44.030Z,18.95
2023-07-11T05:02:44.000Z,18.95
2023-07-11T05:03:44.155Z,18.95
2023-07-11T05:04:43.953Z,18.96
2023-07-11T05:05:43.970Z,18.95
2023-07-11T05:06:43.929Z,18.96
2023-07-11T05:07:43.928Z,18.96
2023-07-11T05:08:43.927Z,18.98
2023-07-11T05:09:58.793Z,18.98
2023-07-11T05:10:43.946Z,19.00
2023-07-11T05:11:43.872Z,19.00
2023-07-11T05:12:43.990Z,19.04
2023-07-11T05:13:43.881Z,19.07
2023-07-11T05:14:43.830Z,19.09
2023-07-11T05:15:43.843Z,19.14
2023-07-11T05:16:43.955Z,19.15
2023-07-11T05:17:43.838Z,19.18
2023-07-11T05:18:45.700Z,19.18
2023-07-11T05:19:43.796Z,19.21
2023-07-11T05:20:43.826Z,19.21
2023-07-11T05:21:43.822Z,19.24
2023-07-11T05:22:43.780Z,19.27
2023-07-11T05:23:43.810Z,19.27
2023-07-11T05:24:43.780Z,19.30
2023-07-11T05:25:43.839Z,19.31
2023-07-11T05:26:43.748Z,19.33
2023-07-11T05:27:43.737Z,19.34
2023-07-11T05:28:43.711Z,19.36
2023-07-11T05:29:43.684Z,19.37
2023-07-11T05:30:43.677Z,19.39
2023-07-11T05:31:43.694Z,19.45
2023-07-11T05:32:43.705Z,19.48
2023-07-11T05:33:43.640Z,19.51
2023-07-11T05:34:43.639Z,19.55
2023-07-11T05:35:43.638Z,19.59
2023-07-11T05:36:43.643Z,19.63
2023-07-11T05:37:43.636Z,19.66
2023-07-11T05:38:43.597Z,19.69
2023-07-11T05:39:43.585Z,19.71
2023-07-11T05:40:43.580Z,19.74
2023-07-11T05:41:43.573Z,19.77
2023-07-11T05:42:43.570Z,19.79
2023-07-11T05:43:43.565Z,19.84
2023-07-11T05:44:43.531Z,19.84
2023-07-11T05:45:43.534Z,19.86
2023-07-11T05:46:46.409Z,19.89
2023-07-11T05:47:43.544Z,19.91
2023-07-11T05:48:43.509Z,19.95
2023-07-11T05:49:43.502Z,19.95
2023-07-11T05:50:43.471Z,20.02
2023-07-11T05:51:43.467Z,20.04
2023-07-11T05:52:43.452Z,20.10
2023-07-11T05:53:43.433Z,20.10
2023-07-11T05:54:43.451Z,20.13
2023-07-11T05:55:43.447Z,20.18
2023-07-11T05:56:43.409Z,20.21
2023-07-11T05:57:43.381Z,20.22
2023-07-11T05:58:43.393Z,20.26
2023-07-11T05:59:43.388Z,20.31
2023-07-11T06:00:43.379Z,20.36
2023-07-11T06:01:43.424Z,20.37
2023-07-11T06:02:43.362Z,20.43
2023-07-11T06:03:43.369Z,20.47
2023-07-11T06:04:43.358Z,20.52
2023-07-11T06:05:43.318Z,20.55
2023-07-11T06:06:43.758Z,20.59
2023-07-11T06:07:43.290Z,20.62
2023-07-11T06:08:43.287Z,20.67
2023-07-11T06:09:43.272Z,20.69
2023-07-11T06:10:43.311Z,20.74
2023-07-11T06:11:43.255Z,20.75
2023-07-11T06:12:43.242Z,20.78
2023-07-11T06:13:43.264Z,20.81
2023-07-11T06:14:43.369Z,20.84
2023-07-11T06:15:43.244Z,20.85
2023-07-11T06:16:43.243Z,20.88
2023-07-11T06:17:43.218Z,20.93
2023-07-11T06:18:43.220Z,20.97
2023-07-11T06:19:43.186Z,21.00
2023-07-11T06:20:43.166Z,21.05
2023-07-11T06:21:43.203Z,21.06
2023-07-11T06:22:43.136Z,21.09
2023-07-11T06:23:43.146Z,21.14
2023-07-11T06:24:44.722Z,21.17
2023-07-11T06:25:43.091Z,21.20
2023-07-11T06:26:43.093Z,21.21
2023-07-11T06:27:43.158Z,21.24
2023-07-11T06:28:43.101Z,21.27
2023-07-11T06:29:43.071Z,21.30
2023-07-11T06:30:43.082Z,21.33
2023-07-11T06:31:43.049Z,21.36
2023-07-11T06:32:43.053Z,21.39
2023-07-11T06:33:43.099Z,21.43
2023-07-11T06:34:43.013Z,21.45
2023-07-11T06:35:43.014Z,21.48
2023-07-11T06:36:42.986Z,21.51
2023-07-11T06:37:42.967Z,21.54
2023-07-11T06:38:42.962Z,21.57
2023-07-11T06:39:42.999Z,21.61
2023-07-11T06:40:42.950Z,21.62
2023-07-11T06:41:42.969Z,21.67
2023-07-11T06:42:42.945Z,21.70
2023-07-11T06:43:42.950Z,21.73
2023-07-11T06:44:42.911Z,21.77
2023-07-11T06:45:42.997Z,21.77
2023-07-11T06:46:42.897Z,21.79
2023-07-11T06:47:42.913Z,21.83
2023-07-11T06:48:42.868Z,21.88
2023-07-11T06:49:42.852Z,21.91
2023-07-11T06:50:42.891Z,21.93
2023-07-11T06:51:42.819Z,21.96
2023-07-11T06:52:42.818Z,21.99
2023-07-11T06:53:42.812Z,22.04
2023-07-11T06:54:42.790Z,22.06
2023-07-11T06:55:42.829Z,22.11
2023-07-11T06:56:42.791Z,22.14
2023-07-11T06:57:42.787Z,22.17
2023-07-11T06:58:42.761Z,22.18
2023-07-11T06:59:42.735Z,22.22
2023-07-11T07:00:42.743Z,22.25
2023-07-11T07:01:43.061Z,22.26
2023-07-11T07:02:42.767Z,22.29
2023-07-11T07:03:42.787Z,22.33
2023-07-11T07:04:42.700Z,22.35
2023-07-11T07:05:42.685Z,22.38
2023-07-11T07:06:42.689Z,22.39
2023-07-11T07:07:42.697Z,22.43
2023-07-11T07:08:42.659Z,22.44
2023-07-11T07:09:42.646Z,22.45
2023-07-11T07:10:42.641Z,22.47
2023-07-11T07:11:42.769Z,22.51
2023-07-11T07:12:42.636Z,22.53
2023-07-11T07:13:52.109Z,22.53
2023-07-11T07:14:42.651Z,22.55
2023-07-11T07:15:42.621Z,22.57
2023-07-11T07:16:42.620Z,22.59
2023-07-11T07:17:42.622Z,22.60
2023-07-11T07:18:42.563Z,22.62
2023-07-11T07:19:42.547Z,22.65
2023-07-11T07:20:55.822Z,22.65
2023-07-11T07:21:42.529Z,22.68
2023-07-11T07:22:42.513Z,22.70
2023-07-11T07:23:42.560Z,22.73
2023-07-11T07:24:42.490Z,22.76
2023-07-11T07:25:42.482Z,22.80
2023-07-11T07:26:42.468Z,22.83
2023-07-11T07:27:42.446Z,22.85
2023-07-11T07:28:42.448Z,22.90
2023-07-11T07:29:42.454Z,22.91
2023-07-11T07:30:42.460Z,22.94
2023-07-11T07:31:42.549Z,22.98
2023-07-11T07:32:42.513Z,23.02
2023-07-11T07:33:42.387Z,23.05
2023-07-11T07:34:42.390Z,23.06
2023-07-11T07:35:42.403Z,23.10
2023-07-11T07:36:42.383Z,23.13
2023-07-11T07:37:42.351Z,23.17
2023-07-11T07:38:42.419Z,23.18
2023-07-11T07:39:42.332Z,23.20
2023-07-11T07:40:42.322Z,23.23
2023-07-11T07:41:42.454Z,23.23
2023-07-11T07:42:42.350Z,23.23
2023-07-11T07:43:42.295Z,23.27
2023-07-11T07:44:42.269Z,23.27
2023-07-11T07:45:42.252Z,23.31
2023-07-11T07:46:42.328Z,23.32
2023-07-11T07:47:42.340Z,23.34
2023-07-11T07:48:42.511Z,23.36
2023-07-11T07:49:54.150Z,23.40
2023-07-11T07:50:42.240Z,23.41
2023-07-11T07:51:42.212Z,23.46
2023-07-11T07:52:42.203Z,23.47
2023-07-11T07:53:42.664Z,23.48
2023-07-11T07:54:42.188Z,23.51
2023-07-11T07:55:42.170Z,23.55
2023-07-11T07:56:42.172Z,23.56
2023-07-11T07:57:42.157Z,23.58
2023-07-11T07:58:44.503Z,23.61
2023-07-11T07:59:42.115Z,23.63
2023-07-11T08:00:42.126Z,23.65
2023-07-11T08:01:42.115Z,23.66
2023-07-11T08:02:42.114Z,23.69
2023-07-11T08:03:42.357Z,23.73
2023-07-11T08:04:42.097Z,23.74
2023-07-11T08:05:42.057Z,23.78
2023-07-11T08:06:42.060Z,23.81
2023-07-11T08:07:42.535Z,23.83
2023-07-11T08:08:42.036Z,23.86
2023-07-11T08:09:42.024Z,23.88
2023-07-11T08:10:42.006Z,23.92
2023-07-11T08:11:41.988Z,23.95
2023-07-11T08:12:41.988Z,23.99
2023-07-11T08:13:58.397Z,24.03
2023-07-11T08:14:42.103Z,24.05
2023-07-11T08:15:41.967Z,24.10
2023-07-11T08:16:41.961Z,24.14
2023-07-11T08:17:42.040Z,24.18
2023-07-11T08:18:41.941Z,24.20
2023-07-11T08:19:41.938Z,24.24
2023-07-11T08:20:41.902Z,24.28
2023-07-11T08:21:41.895Z,24.32
2023-07-11T08:22:41.899Z,24.36
2023-07-11T08:23:41.859Z,24.39
2023-07-11T08:24:41.891Z,24.45
2023-07-11T08:25:41.841Z,24.51
2023-07-11T08:26:41.856Z,24.55
2023-07-11T08:27:41.813Z,24.60
2023-07-11T08:28:41.818Z,24.63
2023-07-11T08:29:41.801Z,24.68
2023-07-11T08:30:41.851Z,24.73
2023-07-11T08:31:41.800Z,24.76
2023-07-11T08:32:44.694Z,24.77
2023-07-11T08:33:41.776Z,24.78
2023-07-11T08:34:41.775Z,24.81
2023-07-11T08:35:41.757Z,24.84
2023-07-11T08:36:41.739Z,24.88
2023-07-11T08:37:41.711Z,24.88
2023-07-11T08:38:41.716Z,24.91
2023-07-11T08:39:41.722Z,24.92
2023-07-11T08:40:48.247Z,24.92
2023-07-11T08:41:41.709Z,24.95
2023-07-11T08:42:41.716Z,24.96
2023-07-11T08:43:41.683Z,24.96
2023-07-11T08:44:41.679Z,24.96
2023-07-11T08:45:41.712Z,24.99
2023-07-11T08:46:41.675Z,24.99
2023-07-11T08:47:41.657Z,25.01
2023-07-11T08:48:41.633Z,25.03
2023-07-11T08:49:41.588Z,25.06
2023-07-11T08:50:43.506Z,25.08
2023-07-11T08:51:41.596Z,25.10
2023-07-11T08:52:41.785Z,25.14
2023-07-11T08:53:41.547Z,25.17
2023-07-11T08:54:41.549Z,25.21
2023-07-11T08:55:41.536Z,25.25
2023-07-11T08:56:42.840Z,25.25
2023-07-11T08:57:41.548Z,25.28
2023-07-11T08:58:41.558Z,25.29
2023-07-11T08:59:41.488Z,25.31
2023-07-11T09:00:41.491Z,25.33
2023-07-11T09:01:41.497Z,25.35
2023-07-11T09:02:41.505Z,25.38
2023-07-11T09:03:41.478Z,25.44
2023-07-11T09:04:41.459Z,25.50
2023-07-11T09:05:41.510Z,25.54
2023-07-11T09:06:41.423Z,25.59
2023-07-11T09:07:41.403Z,25.62
2023-07-11T09:08:41.409Z,25.69
2023-07-11T09:09:41.378Z,25.73
2023-07-11T09:10:48.536Z,25.78
2023-07-11T09:11:41.376Z,25.81
2023-07-11T09:12:41.353Z,25.83
2023-07-11T09:13:41.465Z,25.85
2023-07-11T09:14:41.459Z,25.88
2023-07-11T09:15:41.324Z,25.88
2023-07-11T09:16:41.377Z,25.90
2023-07-11T09:17:41.499Z,25.91
2023-07-11T09:18:41.286Z,25.91
2023-07-11T09:19:41.284Z,25.91
2023-07-11T09:20:41.290Z,25.93
2023-07-11T09:21:41.284Z,25.95
2023-07-11T09:22:41.258Z,25.96
2023-07-11T09:23:41.257Z,26.00
2023-07-11T09:24:41.232Z,26.00
2023-07-11T09:25:41.253Z,26.05
2023-07-11T09:26:41.273Z,26.07
2023-07-11T09:27:41.214Z,26.13
2023-07-11T09:28:41.202Z,26.18
2023-07-11T09:29:41.166Z,26.21
2023-07-11T09:30:41.180Z,26.23
2023-07-11T09:31:41.272Z,26.28
2023-07-11T09:32:41.242Z,26.33
2023-07-11T09:33:41.143Z,26.37
2023-07-11T09:34:41.133Z,26.41
2023-07-11T09:35:41.121Z,26.44
2023-07-11T09:36:41.117Z,26.51
2023-07-11T09:37:41.102Z,26.53
2023-07-11T09:38:41.118Z,26.55
2023-07-11T09:39:41.090Z,26.60
2023-07-11T09:40:41.054Z,26.68
2023-07-11T09:41:49.662Z,26.71
2023-07-11T09:42:41.037Z,26.73
2023-07-11T09:43:41.067Z,26.74
2023-07-11T09:44:41.062Z,26.74
2023-07-11T09:45:41.083Z,26.75
2023-07-11T09:46:41.056Z,26.74
2023-07-11T09:47:41.034Z,26.73
2023-07-11T09:48:42.105Z,26.73
2023-07-11T09:49:41.012Z,26.73
2023-07-11T09:50:46.411Z,26.75
2023-07-11T09:51:40.941Z,26.78
2023-07-11T09:52:41.019Z,26.84
2023-07-11T09:53:40.936Z,26.88
2023-07-11T09:54:40.910Z,26.92
2023-07-11T09:55:40.912Z,26.95
2023-07-11T09:56:40.887Z,26.99
2023-07-11T09:57:40.906Z,26.99
2023-07-11T09:58:40.924Z,27.05
2023-07-11T09:59:40.892Z,27.08
2023-07-11T10:00:40.893Z,27.10
2023-07-11T10:01:40.950Z,27.10
2023-07-11T10:02:40.883Z,27.11
2023-07-11T10:03:40.866Z,27.12
2023-07-11T10:04:42.237Z,27.18
2023-07-11T10:05:40.951Z,27.26
2023-07-11T10:07:40.789Z,27.33
2023-07-11T10:08:40.763Z,27.37
2023-07-11T10:09:40.780Z,27.37
2023-07-11T10:10:40.796Z,27.40
2023-07-11T10:11:40.746Z,27.42
2023-07-11T10:12:40.732Z,27.44
2023-07-11T10:14:40.792Z,27.47
2023-07-11T10:15:40.725Z,27.47
2023-07-11T10:16:40.710Z,27.48
2023-07-11T10:17:40.770Z,27.49
2023-07-11T10:18:40.666Z,27.52
2023-07-11T10:19:40.656Z,27.52
2023-07-11T10:20:40.722Z,27.49
2023-07-11T10:21:41.180Z,27.55
2023-07-11T10:22:40.620Z,27.54
2023-07-11T10:23:40.634Z,27.55
2023-07-11T10:24:40.666Z,27.55
2023-07-11T10:25:40.603Z,27.55
2023-07-11T10:26:40.588Z,27.58
2023-07-11T10:27:40.585Z,27.59
2023-07-11T10:28:40.578Z,27.64
2023-07-11T10:29:40.592Z,27.68
2023-07-11T10:30:40.549Z,27.73
2023-07-11T10:31:40.558Z,27.75
2023-07-11T10:32:40.564Z,27.78
2023-07-11T10:33:53.039Z,27.80
2023-07-11T10:34:40.546Z,27.82
2023-07-11T10:35:40.515Z,27.85
2023-07-11T10:36:40.481Z,27.86
2023-07-11T10:37:40.566Z,27.86
2023-07-11T10:38:40.466Z,27.86
2023-07-11T10:39:40.477Z,27.89
2023-07-11T10:40:40.480Z,27.89
2023-07-11T10:41:40.447Z,27.95
2023-07-11T10:42:40.431Z,28.00
2023-07-11T10:43:40.420Z,28.05
2023-07-11T10:44:40.426Z,28.08
2023-07-11T10:45:40.439Z,28.12
2023-07-11T10:46:40.427Z,28.12
2023-07-11T10:47:40.441Z,28.12
2023-07-11T10:48:40.392Z,28.12
2023-07-11T10:49:40.386Z,28.12
2023-07-11T10:50:40.383Z,28.11
2023-07-11T10:51:40.359Z,28.11
2023-07-11T10:52:40.343Z,28.12
2023-07-11T10:53:40.340Z,28.12
2023-07-11T10:54:40.321Z,28.14
2023-07-11T10:55:40.319Z,28.15
2023-07-11T10:56:40.274Z,28.19
2023-07-11T10:57:44.325Z,28.23
2023-07-11T10:58:40.255Z,28.26
2023-07-11T10:59:40.283Z,28.30
2023-07-11T11:00:40.332Z,28.35
2023-07-11T11:01:40.339Z,28.39
2023-07-11T11:02:40.270Z,28.39
2023-07-11T11:03:40.429Z,28.41
2023-07-11T11:04:40.220Z,28.45
2023-07-11T11:05:40.246Z,28.51
2023-07-11T11:06:40.239Z,28.57
2023-07-11T11:07:40.211Z,28.57
2023-07-11T11:08:40.186Z,28.60
2023-07-11T11:09:40.163Z,28.63
2023-07-11T11:10:40.155Z,28.64
2023-07-11T11:11:40.169Z,28.72
2023-07-11T11:12:40.146Z,28.78
2023-07-11T11:13:40.168Z,28.84
2023-07-11T11:14:40.087Z,28.88
2023-07-11T11:15:40.127Z,28.94
2023-07-11T11:16:40.135Z,28.96
2023-07-11T11:17:40.149Z,29.01
2023-07-11T11:18:40.078Z,29.01
2023-07-11T11:19:40.060Z,29.01
2023-07-11T11:20:45.118Z,28.98
2023-07-11T11:22:40.017Z,29.02
2023-07-11T11:23:40.002Z,29.05
2023-07-11T11:24:40.019Z,29.05
2023-07-11T11:25:39.996Z,29.10
2023-07-11T11:26:40.013Z,29.12
2023-07-11T11:27:39.994Z,29.12
2023-07-11T11:28:39.960Z,29.13
2023-07-11T11:29:39.971Z,29.14
2023-07-11T11:30:39.968Z,29.16
2023-07-11T11:31:39.985Z,29.16
2023-07-11T11:32:41.469Z,29.17
2023-07-11T11:33:39.934Z,29.19
2023-07-11T11:34:39.915Z,29.19
2023-07-11T11:35:39.891Z,29.19
2023-07-11T11:36:39.878Z,29.20
2023-07-11T11:37:39.905Z,29.20
2023-07-11T11:38:39.874Z,29.24
2023-07-11T11:39:39.848Z,29.26
2023-07-11T11:40:39.835Z,29.29
2023-07-11T11:41:39.843Z,29.31
2023-07-11T11:42:39.850Z,29.32
2023-07-11T11:45:58.423Z,29.34
2023-07-11T11:46:33.956Z,29.36
2023-07-11T11:49:43.337Z,29.41
2023-07-11T11:50:56.818Z,29.42
2023-07-11T11:51:41.159Z,29.49
2023-07-11T11:53:40.881Z,29.60
2023-07-11T11:54:40.890Z,29.66
2023-07-11T11:55:40.882Z,29.72
2023-07-11T11:56:40.870Z,29.79
2023-07-11T11:57:40.846Z,29.84
2023-07-11T11:58:40.855Z,29.90
2023-07-11T11:59:40.821Z,29.90
2023-07-11T12:00:40.843Z,29.95
2023-07-11T12:01:40.819Z,29.97
2023-07-11T12:02:40.880Z,29.97
2023-07-11T12:03:40.890Z,29.97
2023-07-11T12:04:40.890Z,29.98
2023-07-11T12:05:40.779Z,29.98
2023-07-11T12:06:40.792Z,30.00
2023-07-11T12:07:43.824Z,30.02
2023-07-11T12:08:40.803Z,30.03
2023-07-11T12:09:40.739Z,30.05
2023-07-11T12:10:40.805Z,30.05
2023-07-11T12:11:40.703Z,30.06
2023-07-11T12:12:40.706Z,30.09
2023-07-11T12:13:40.744Z,30.12
2023-07-11T12:14:40.707Z,30.13
2023-07-11T12:15:40.713Z,30.13
2023-07-11T12:16:42.328Z,30.16
2023-07-11T12:17:40.746Z,30.21
2023-07-11T12:18:40.656Z,30.25
2023-07-11T12:19:40.707Z,30.28
2023-07-11T12:20:40.755Z,30.30
2023-07-11T12:21:40.617Z,30.34
2023-07-11T12:22:40.623Z,30.40
2023-07-11T12:24:42.905Z,30.53
2023-07-11T12:25:40.665Z,30.53
2023-07-11T12:26:40.588Z,30.54
2023-07-11T12:27:40.567Z,30.51
2023-07-11T12:28:40.592Z,30.51
2023-07-11T12:29:40.583Z,30.54
2023-07-11T12:30:40.608Z,30.55
2023-07-11T12:31:40.557Z,30.55
2023-07-11T12:32:40.565Z,30.57
2023-07-11T12:33:40.518Z,30.61
2023-07-11T12:34:40.540Z,30.61
2023-07-11T12:35:40.496Z,30.65
2023-07-11T12:36:40.547Z,30.65
2023-07-11T12:37:40.518Z,30.66
2023-07-11T12:38:40.465Z,30.68
2023-07-11T12:39:40.442Z,30.69
2023-07-11T12:40:40.453Z,30.72
2023-07-11T12:41:44.876Z,30.73
2023-07-11T12:42:40.419Z,30.75
2023-07-11T12:43:40.412Z,30.77
2023-07-11T12:44:40.426Z,30.75
2023-07-11T12:45:40.393Z,30.75
2023-07-11T12:46:40.449Z,30.73
2023-07-11T12:47:40.389Z,30.73
2023-07-11T12:48:40.348Z,30.77
2023-07-11T12:49:40.332Z,30.81
2023-07-11T12:50:40.346Z,30.85
2023-07-11T12:51:40.346Z,30.90
2023-07-11T12:52:40.323Z,30.91
2023-07-11T12:53:40.335Z,30.92
2023-07-11T12:54:40.311Z,30.96
2023-07-11T12:55:40.291Z,30.99
2023-07-11T12:56:40.322Z,31.03
2023-07-11T12:57:40.255Z,31.03
2023-07-11T12:58:40.247Z,31.05
2023-07-11T12:59:40.268Z,31.09
2023-07-11T13:00:40.256Z,31.12
2023-07-11T13:01:40.302Z,31.15